Aeroporto :
LOGIN :

Iscrizione | Disclaimer

   EN    FR    IT 

 










Sommario :    VFR   VFR Marginale   IFR   IFR Intensivo   IFR Molto Intensivo
Visibilità : 
Base nubi : 
>= 8 km
>= 3000ft
5 / 8 km
1000 / 3000 ft
1500m / 5 km
500 / 1000 ft
800 / 1500m
200 / 500 ft
< 800m
< 200 ft
Simboli :   Temporali  Nebbia  Neve Forte  Precipitazioni Forti  Vento > 20 kt
SIGMETs :   Varie  Temporali  Ghiacco  Turbolenza  Onda orograficha  Ceneri Vulcaniche






- Altitudine del aeroporto : 1249 ft


ETSN - Neuburg AB

ULTIMO METAR :
  • 061947Z 01002KT 0200 FZFG BKN220 BKN270 M03/M03 Q1016 RED

METARs OBSOLETI :
  • 061920Z 01001KT 3000 BR SCT230 BKN270 M02/M02 Q1016 YLO
  • 061837Z 03001KT 4000 BR BKN270 M02/M02 Q1016 GRN
  • 061820Z 01002KT 5000 BR BKN270 M02/M03 Q1016 WHT
  • 061720Z 06001KT 7000 BKN290 M01/M02 Q1016 WHT

TAF AMD TAF ETSN
Valido dal 06 a 19 ore il 07 a 03 ore UTC


061948Z 0619/0703 VRB03KT 8000 NSW BKN300
TEMPO 0619/0621 VRB02KT 0500 FZFG SCT300
BECMG 0621/0623 23004KT 7000 -RA BKN070
PROB30 0622/0701 24008KT 3000 -FZRA BKN005 BY ETGL



MetMap, La meteo Aeronautica in un colpo d'occhio ! - Copyright ORBIFLY Dicembre 2007 - Disclaimer

ORBIFLY MET'MAP TEAM :

Programmazione e sviluppo : Alexandra Zaïnal
Concezione : Baudouin d'Aumeries
Aiuto per la programmazione : Marc-Olivier Méhu
Supporto tecnico e logistico : Manuel Goepfert
Aiuto per la traduzione : Arnaldo La Scala

Contatto : metmap@orbifly.com




FONTI E CREDITI :

   NOAA